sensor_id;sensor_type;location;lat;lon;timestamp;temperature;humidity
63260;DHT22;49390;51.380;0.098;2022-10-16T00:00:03;12.90;99.90
63260;DHT22;49390;51.380;0.098;2022-10-16T00:02:54;12.80;99.90
63260;DHT22;49390;51.380;0.098;2022-10-16T00:05:22;12.80;99.90
63260;DHT22;49390;51.380;0.098;2022-10-16T00:07:52;12.80;99.90
63260;DHT22;49390;51.380;0.098;2022-10-16T00:10:20;12.80;99.90
63260;DHT22;49390;51.380;0.098;2022-10-16T00:12:55;12.80;99.90
63260;DHT22;49390;51.380;0.098;2022-10-16T00:15:23;12.80;99.90
63260;DHT22;49390;51.380;0.098;2022-10-16T00:17:51;12.80;99.90
63260;DHT22;49390;51.380;0.098;2022-10-16T00:20:19;12.80;99.90
63260;DHT22;49390;51.380;0.098;2022-10-16T00:23:09;12.90;99.90
63260;DHT22;49390;51.380;0.098;2022-10-16T00:25:38;12.90;99.90
63260;DHT22;49390;51.380;0.098;2022-10-16T00:28:06;12.90;99.90
63260;DHT22;49390;51.380;0.098;2022-10-16T00:30:38;13.00;99.90
63260;DHT22;49390;51.380;0.098;2022-10-16T00:33:09;13.00;99.90
63260;DHT22;49390;51.380;0.098;2022-10-16T00:35:37;13.00;99.90
63260;DHT22;49390;51.380;0.098;2022-10-16T00:38:05;13.00;99.90
63260;DHT22;49390;51.380;0.098;2022-10-16T00:40:33;13.00;99.90
63260;DHT22;49390;51.380;0.098;2022-10-16T00:43:01;13.00;99.90
63260;DHT22;49390;51.380;0.098;2022-10-16T00:45:29;12.90;99.90
63260;DHT22;49390;51.380;0.098;2022-10-16T00:47:58;12.90;99.90
63260;DHT22;49390;51.380;0.098;2022-10-16T00:50:33;12.90;99.90
63260;DHT22;49390;51.380;0.098;2022-10-16T00:53:02;12.90;99.90
63260;DHT22;49390;51.380;0.098;2022-10-16T00:55:30;12.80;99.90
63260;DHT22;49390;51.380;0.098;2022-10-16T00:57:58;12.90;99.90
63260;DHT22;49390;51.380;0.098;2022-10-16T01:00:29;12.90;99.90
63260;DHT22;49390;51.380;0.098;2022-10-16T01:03:01;12.80;99.90
63260;DHT22;49390;51.380;0.098;2022-10-16T01:05:41;12.80;99.90
63260;DHT22;49390;51.380;0.098;2022-10-16T01:10:54;12.90;99.90
63260;DHT22;49390;51.380;0.098;2022-10-16T01:13:28;12.80;99.90
63260;DHT22;49390;51.380;0.098;2022-10-16T01:16:29;12.80;99.90
63260;DHT22;49390;51.380;0.098;2022-10-16T01:19:12;12.80;99.90
63260;DHT22;49390;51.380;0.098;2022-10-16T01:21:47;12.80;99.90
63260;DHT22;49390;51.380;0.098;2022-10-16T01:24:49;12.80;99.90
63260;DHT22;49390;51.380;0.098;2022-10-16T01:30:05;12.80;99.90
63260;DHT22;49390;51.380;0.098;2022-10-16T01:32:42;12.80;99.90
63260;DHT22;49390;51.380;0.098;2022-10-16T01:35:21;12.70;99.90
63260;DHT22;49390;51.380;0.098;2022-10-16T01:37:55;12.70;99.90
63260;DHT22;49390;51.380;0.098;2022-10-16T01:40:27;12.70;99.90
63260;DHT22;49390;51.380;0.098;2022-10-16T01:43:06;12.70;99.90
63260;DHT22;49390;51.380;0.098;2022-10-16T01:45:35;12.70;99.90
63260;DHT22;49390;51.380;0.098;2022-10-16T01:48:05;12.70;99.90
63260;DHT22;49390;51.380;0.098;2022-10-16T01:50:38;12.70;99.90
63260;DHT22;49390;51.380;0.098;2022-10-16T01:53:11;12.70;99.90
63260;DHT22;49390;51.380;0.098;2022-10-16T01:55:42;12.70;99.90
63260;DHT22;49390;51.380;0.098;2022-10-16T01:58:13;12.90;99.90
63260;DHT22;49390;51.380;0.098;2022-10-16T02:00:45;12.80;99.90
63260;DHT22;49390;51.380;0.098;2022-10-16T02:03:17;12.80;99.90
63260;DHT22;49390;51.380;0.098;2022-10-16T02:05:54;12.90;99.90
63260;DHT22;49390;51.380;0.098;2022-10-16T02:08:24;12.90;99.90
63260;DHT22;49390;51.380;0.098;2022-10-16T02:10:55;13.00;99.90
63260;DHT22;49390;51.380;0.098;2022-10-16T02:13:31;13.00;99.90
63260;DHT22;49390;51.380;0.098;2022-10-16T02:16:03;13.00;99.90
63260;DHT22;49390;51.380;0.098;2022-10-16T02:18:31;13.00;99.90
63260;DHT22;49390;51.380;0.098;2022-10-16T02:21:23;13.10;99.90
63260;DHT22;49390;51.380;0.098;2022-10-16T02:24:11;13.10;99.90
63260;DHT22;49390;51.380;0.098;2022-10-16T02:27:00;13.00;99.90
63260;DHT22;49390;51.380;0.098;2022-10-16T02:29:33;13.00;99.90
63260;DHT22;49390;51.380;0.098;2022-10-16T02:32:04;13.10;99.90
63260;DHT22;49390;51.380;0.098;2022-10-16T02:34:34;13.00;99.90
63260;DHT22;49390;51.380;0.098;2022-10-16T02:37:04;12.90;99.90
63260;DHT22;49390;51.380;0.098;2022-10-16T02:39:38;12.90;99.90
63260;DHT22;49390;51.380;0.098;2022-10-16T02:42:14;12.80;99.90
63260;DHT22;49390;51.380;0.098;2022-10-16T02:44:42;12.80;99.90
63260;DHT22;49390;51.380;0.098;2022-10-16T02:47:10;12.70;99.90
63260;DHT22;49390;51.380;0.098;2022-10-16T02:49:41;12.70;99.90
63260;DHT22;49390;51.380;0.098;2022-10-16T02:52:09;12.60;99.90
63260;DHT22;49390;51.380;0.098;2022-10-16T02:54:38;12.60;99.90
63260;DHT22;49390;51.380;0.098;2022-10-16T02:57:06;12.60;99.90
63260;DHT22;49390;51.380;0.098;2022-10-16T02:59:34;12.50;99.90
63260;DHT22;49390;51.380;0.098;2022-10-16T03:02:02;12.50;99.90
63260;DHT22;49390;51.380;0.098;2022-10-16T03:04:30;12.50;99.90
63260;DHT22;49390;51.380;0.098;2022-10-16T03:07:00;12.40;99.90
63260;DHT22;49390;51.380;0.098;2022-10-16T03:09:29;12.40;99.90
63260;DHT22;49390;51.380;0.098;2022-10-16T03:11:57;12.40;99.90
63260;DHT22;49390;51.380;0.098;2022-10-16T03:14:25;12.30;99.90
63260;DHT22;49390;51.380;0.098;2022-10-16T03:16:58;12.30;99.90
63260;DHT22;49390;51.380;0.098;2022-10-16T03:19:26;12.30;99.90
63260;DHT22;49390;51.380;0.098;2022-10-16T03:21:55;12.30;99.90
63260;DHT22;49390;51.380;0.098;2022-10-16T03:24:26;12.30;99.90
63260;DHT22;49390;51.380;0.098;2022-10-16T03:26:54;12.20;99.90
63260;DHT22;49390;51.380;0.098;2022-10-16T03:29:22;12.30;99.90
63260;DHT22;49390;51.380;0.098;2022-10-16T03:31:50;12.20;99.90
63260;DHT22;49390;51.380;0.098;2022-10-16T03:34:19;12.20;99.90
63260;DHT22;49390;51.380;0.098;2022-10-16T03:36:48;12.20;99.90
63260;DHT22;49390;51.380;0.098;2022-10-16T03:39:17;12.10;99.90
63260;DHT22;49390;51.380;0.098;2022-10-16T03:41:46;12.10;99.90
63260;DHT22;49390;51.380;0.098;2022-10-16T03:44:14;12.10;99.90
63260;DHT22;49390;51.380;0.098;2022-10-16T03:46:42;12.10;99.90
63260;DHT22;49390;51.380;0.098;2022-10-16T03:49:13;12.10;99.90
63260;DHT22;49390;51.380;0.098;2022-10-16T03:51:41;12.10;99.90
63260;DHT22;49390;51.380;0.098;2022-10-16T03:54:12;12.10;99.90
63260;DHT22;49390;51.380;0.098;2022-10-16T03:56:40;12.10;99.90
63260;DHT22;49390;51.380;0.098;2022-10-16T03:59:08;12.10;99.90
63260;DHT22;49390;51.380;0.098;2022-10-16T04:01:36;12.10;99.90
63260;DHT22;49390;51.380;0.098;2022-10-16T04:04:04;12.10;99.90
63260;DHT22;49390;51.380;0.098;2022-10-16T04:06:36;12.10;99.90
63260;DHT22;49390;51.380;0.098;2022-10-16T04:09:04;12.10;99.90
63260;DHT22;49390;51.380;0.098;2022-10-16T04:11:34;12.10;99.90
63260;DHT22;49390;51.380;0.098;2022-10-16T04:14:04;12.10;99.90
63260;DHT22;49390;51.380;0.098;2022-10-16T04:16:31;12.10;99.90
63260;DHT22;49390;51.380;0.098;2022-10-16T04:19:00;12.10;99.90
63260;DHT22;49390;51.380;0.098;2022-10-16T04:21:28;12.10;99.90
63260;DHT22;49390;51.380;0.098;2022-10-16T04:23:56;12.10;99.90
63260;DHT22;49390;51.380;0.098;2022-10-16T04:26:27;12.10;99.90
63260;DHT22;49390;51.380;0.098;2022-10-16T04:28:55;12.10;99.90
63260;DHT22;49390;51.380;0.098;2022-10-16T04:31:24;12.10;99.90
63260;DHT22;49390;51.380;0.098;2022-10-16T04:33:52;12.10;99.90
63260;DHT22;49390;51.380;0.098;2022-10-16T04:36:20;12.10;99.90
63260;DHT22;49390;51.380;0.098;2022-10-16T04:38:53;12.10;99.90
63260;DHT22;49390;51.380;0.098;2022-10-16T04:41:22;12.10;99.90
63260;DHT22;49390;51.380;0.098;2022-10-16T04:43:50;12.10;99.90
63260;DHT22;49390;51.380;0.098;2022-10-16T04:46:17;12.10;99.90
63260;DHT22;49390;51.380;0.098;2022-10-16T04:48:45;12.10;99.90
63260;DHT22;49390;51.380;0.098;2022-10-16T04:51:17;12.00;99.90
63260;DHT22;49390;51.380;0.098;2022-10-16T04:53:46;12.00;99.90
63260;DHT22;49390;51.380;0.098;2022-10-16T04:56:15;12.00;99.90
63260;DHT22;49390;51.380;0.098;2022-10-16T04:58:43;12.00;99.90
63260;DHT22;49390;51.380;0.098;2022-10-16T05:01:11;12.00;99.90
63260;DHT22;49390;51.380;0.098;2022-10-16T05:03:39;11.90;99.90
63260;DHT22;49390;51.380;0.098;2022-10-16T05:06:07;11.90;99.90
63260;DHT22;49390;51.380;0.098;2022-10-16T05:08:35;11.90;99.90
63260;DHT22;49390;51.380;0.098;2022-10-16T05:11:04;11.90;99.90
63260;DHT22;49390;51.380;0.098;2022-10-16T05:13:32;11.90;99.90
63260;DHT22;49390;51.380;0.098;2022-10-16T05:16:00;11.90;99.90
63260;DHT22;49390;51.380;0.098;2022-10-16T05:18:29;11.80;99.90
63260;DHT22;49390;51.380;0.098;2022-10-16T05:20:57;11.80;99.90
63260;DHT22;49390;51.380;0.098;2022-10-16T05:23:25;11.80;99.90
63260;DHT22;49390;51.380;0.098;2022-10-16T05:25:57;11.80;99.90
63260;DHT22;49390;51.380;0.098;2022-10-16T05:28:28;11.90;99.90
63260;DHT22;49390;51.380;0.098;2022-10-16T05:30:56;11.80;99.90
63260;DHT22;49390;51.380;0.098;2022-10-16T05:33:29;11.80;99.90
63260;DHT22;49390;51.380;0.098;2022-10-16T05:36:01;11.80;99.90
63260;DHT22;49390;51.380;0.098;2022-10-16T05:38:29;11.80;99.90
63260;DHT22;49390;51.380;0.098;2022-10-16T05:40:58;11.80;99.90
63260;DHT22;49390;51.380;0.098;2022-10-16T05:43:30;11.80;99.90
63260;DHT22;49390;51.380;0.098;2022-10-16T05:46:01;11.80;99.90
63260;DHT22;49390;51.380;0.098;2022-10-16T05:48:30;11.80;99.90
63260;DHT22;49390;51.380;0.098;2022-10-16T05:51:04;11.80;99.90
63260;DHT22;49390;51.380;0.098;2022-10-16T05:53:38;11.80;99.90
63260;DHT22;49390;51.380;0.098;2022-10-16T05:56:09;11.70;99.90
63260;DHT22;49390;51.380;0.098;2022-10-16T05:58:40;11.70;99.90
63260;DHT22;49390;51.380;0.098;2022-10-16T06:01:18;11.70;99.90
63260;DHT22;49390;51.380;0.098;2022-10-16T06:03:47;11.70;99.90
63260;DHT22;49390;51.380;0.098;2022-10-16T06:06:23;11.70;99.90
63260;DHT22;49390;51.380;0.098;2022-10-16T06:08:52;11.60;99.90
63260;DHT22;49390;51.380;0.098;2022-10-16T06:11:26;11.60;99.90
63260;DHT22;49390;51.380;0.098;2022-10-16T06:13:57;11.60;99.90
63260;DHT22;49390;51.380;0.098;2022-10-16T06:16:26;11.60;99.90
63260;DHT22;49390;51.380;0.098;2022-10-16T06:18:57;11.60;99.90
63260;DHT22;49390;51.380;0.098;2022-10-16T06:21:28;11.60;99.90
63260;DHT22;49390;51.380;0.098;2022-10-16T06:23:57;11.50;99.90
63260;DHT22;49390;51.380;0.098;2022-10-16T06:26:27;11.50;99.90
63260;DHT22;49390;51.380;0.098;2022-10-16T06:28:57;11.60;99.90
63260;DHT22;49390;51.380;0.098;2022-10-16T06:31:27;11.50;99.90
63260;DHT22;49390;51.380;0.098;2022-10-16T06:33:58;11.50;99.90
63260;DHT22;49390;51.380;0.098;2022-10-16T06:36:26;11.50;99.90
63260;DHT22;49390;51.380;0.098;2022-10-16T06:38:57;11.50;99.90
63260;DHT22;49390;51.380;0.098;2022-10-16T06:41:25;11.50;99.90
63260;DHT22;49390;51.380;0.098;2022-10-16T06:43:53;11.50;99.90
63260;DHT22;49390;51.380;0.098;2022-10-16T06:46:24;11.50;99.90
63260;DHT22;49390;51.380;0.098;2022-10-16T06:48:53;11.50;99.90
63260;DHT22;49390;51.380;0.098;2022-10-16T06:51:22;11.50;99.90
63260;DHT22;49390;51.380;0.098;2022-10-16T06:53:54;11.50;99.90
63260;DHT22;49390;51.380;0.098;2022-10-16T06:56:32;11.50;99.90
63260;DHT22;49390;51.380;0.098;2022-10-16T06:59:03;11.50;99.90
63260;DHT22;49390;51.380;0.098;2022-10-16T07:01:32;11.50;99.90
63260;DHT22;49390;51.380;0.098;2022-10-16T07:04:01;11.50;99.90
63260;DHT22;49390;51.380;0.098;2022-10-16T07:06:32;11.50;99.90
63260;DHT22;49390;51.380;0.098;2022-10-16T07:09:06;11.60;99.90
63260;DHT22;49390;51.380;0.098;2022-10-16T07:11:36;11.60;99.90
63260;DHT22;49390;51.380;0.098;2022-10-16T07:14:17;11.60;99.90
63260;DHT22;49390;51.380;0.098;2022-10-16T07:16:45;11.60;99.90
63260;DHT22;49390;51.380;0.098;2022-10-16T07:19:16;11.60;99.90
63260;DHT22;49390;51.380;0.098;2022-10-16T07:21:45;11.70;99.90
63260;DHT22;49390;51.380;0.098;2022-10-16T07:24:15;11.70;99.90
63260;DHT22;49390;51.380;0.098;2022-10-16T07:26:45;11.70;99.90
63260;DHT22;49390;51.380;0.098;2022-10-16T07:29:16;11.70;99.90
63260;DHT22;49390;51.380;0.098;2022-10-16T07:31:45;11.80;99.90
63260;DHT22;49390;51.380;0.098;2022-10-16T07:34:14;11.80;99.90
63260;DHT22;49390;51.380;0.098;2022-10-16T07:36:42;11.80;99.90
63260;DHT22;49390;51.380;0.098;2022-10-16T07:39:10;11.80;99.90
63260;DHT22;49390;51.380;0.098;2022-10-16T07:41:38;11.90;99.90
63260;DHT22;49390;51.380;0.098;2022-10-16T07:44:06;11.90;99.90
63260;DHT22;49390;51.380;0.098;2022-10-16T07:46:36;11.90;99.90
63260;DHT22;49390;51.380;0.098;2022-10-16T07:49:06;11.90;99.90
63260;DHT22;49390;51.380;0.098;2022-10-16T07:51:34;12.00;99.90
63260;DHT22;49390;51.380;0.098;2022-10-16T07:54:03;12.00;99.90
63260;DHT22;49390;51.380;0.098;2022-10-16T07:56:33;12.00;99.90
63260;DHT22;49390;51.380;0.098;2022-10-16T08:33:06;12.30;99.90
63260;DHT22;49390;51.380;0.098;2022-10-16T08:35:37;12.90;99.90
63260;DHT22;49390;51.380;0.098;2022-10-16T08:38:06;12.90;99.90
63260;DHT22;49390;51.380;0.098;2022-10-16T08:40:36;12.90;99.90
63260;DHT22;49390;51.380;0.098;2022-10-16T08:43:27;13.00;99.90
63260;DHT22;49390;51.380;0.098;2022-10-16T08:48:54;13.30;99.90
63260;DHT22;49390;51.380;0.098;2022-10-16T08:51:30;13.60;99.90
63260;DHT22;49390;51.380;0.098;2022-10-16T08:54:06;13.90;99.90
63260;DHT22;49390;51.380;0.098;2022-10-16T08:56:34;14.20;99.90
63260;DHT22;49390;51.380;0.098;2022-10-16T08:59:06;14.50;99.90
63260;DHT22;49390;51.380;0.098;2022-10-16T09:01:41;14.70;99.90
63260;DHT22;49390;51.380;0.098;2022-10-16T09:08:03;15.10;99.90
63260;DHT22;49390;51.380;0.098;2022-10-16T09:13:29;15.50;99.90
63260;DHT22;49390;51.380;0.098;2022-10-16T09:16:14;15.60;99.90
63260;DHT22;49390;51.380;0.098;2022-10-16T09:18:58;15.70;99.90
63260;DHT22;49390;51.380;0.098;2022-10-16T09:21:36;15.70;99.90
63260;DHT22;49390;51.380;0.098;2022-10-16T09:24:15;15.80;99.90
63260;DHT22;49390;51.380;0.098;2022-10-16T09:26:43;15.90;99.90
63260;DHT22;49390;51.380;0.098;2022-10-16T09:29:18;15.90;99.90
63260;DHT22;49390;51.380;0.098;2022-10-16T09:31:55;16.00;99.90
63260;DHT22;49390;51.380;0.098;2022-10-16T09:34:34;16.00;99.90
63260;DHT22;49390;51.380;0.098;2022-10-16T09:37:08;16.00;99.90
63260;DHT22;49390;51.380;0.098;2022-10-16T09:39:51;16.00;99.90
63260;DHT22;49390;51.380;0.098;2022-10-16T09:42:31;16.00;99.90
63260;DHT22;49390;51.380;0.098;2022-10-16T09:45:00;16.00;99.90
63260;DHT22;49390;51.380;0.098;2022-10-16T09:47:29;16.00;99.90
63260;DHT22;49390;51.380;0.098;2022-10-16T09:50:01;16.00;99.90
63260;DHT22;49390;51.380;0.098;2022-10-16T09:52:30;15.90;99.90
63260;DHT22;49390;51.380;0.098;2022-10-16T09:55:13;15.90;99.90
63260;DHT22;49390;51.380;0.098;2022-10-16T09:57:56;15.90;99.90
63260;DHT22;49390;51.380;0.098;2022-10-16T10:00:25;15.90;99.90
63260;DHT22;49390;51.380;0.098;2022-10-16T10:02:54;15.80;99.90
63260;DHT22;49390;51.380;0.098;2022-10-16T10:05:26;15.70;99.90
63260;DHT22;49390;51.380;0.098;2022-10-16T10:08:00;15.70;99.90
63260;DHT22;49390;51.380;0.098;2022-10-16T10:10:32;15.60;99.90
63260;DHT22;49390;51.380;0.098;2022-10-16T10:13:03;15.60;99.90
63260;DHT22;49390;51.380;0.098;2022-10-16T10:15:34;15.70;99.90
63260;DHT22;49390;51.380;0.098;2022-10-16T10:18:17;15.80;99.90
63260;DHT22;49390;51.380;0.098;2022-10-16T10:20:58;15.80;99.90
63260;DHT22;49390;51.380;0.098;2022-10-16T10:23:29;15.90;99.90
63260;DHT22;49390;51.380;0.098;2022-10-16T10:29:08;16.20;99.90
63260;DHT22;49390;51.380;0.098;2022-10-16T10:34:59;16.60;99.90
63260;DHT22;49390;51.380;0.098;2022-10-16T10:37:43;16.70;99.90
63260;DHT22;49390;51.380;0.098;2022-10-16T10:40:31;16.70;99.90
63260;DHT22;49390;51.380;0.098;2022-10-16T10:43:20;16.80;99.90
63260;DHT22;49390;51.380;0.098;2022-10-16T10:46:01;16.80;99.80
63260;DHT22;49390;51.380;0.098;2022-10-16T10:51:31;16.90;98.50
63260;DHT22;49390;51.380;0.098;2022-10-16T10:59:48;17.10;96.20
63260;DHT22;49390;51.380;0.098;2022-10-16T11:02:46;17.20;95.00
63260;DHT22;49390;51.380;0.098;2022-10-16T11:08:20;17.50;93.10
63260;DHT22;49390;51.380;0.098;2022-10-16T11:13:39;17.60;92.10
63260;DHT22;49390;51.380;0.098;2022-10-16T11:16:26;17.70;91.00
63260;DHT22;49390;51.380;0.098;2022-10-16T11:22:07;17.70;88.80
63260;DHT22;49390;51.380;0.098;2022-10-16T11:25:02;17.70;88.70
63260;DHT22;49390;51.380;0.098;2022-10-16T11:36:00;17.80;86.80
63260;DHT22;49390;51.380;0.098;2022-10-16T11:41:22;17.90;87.20
63260;DHT22;49390;51.380;0.098;2022-10-16T11:44:25;18.00;85.80
63260;DHT22;49390;51.380;0.098;2022-10-16T11:50:05;17.90;86.90
63260;DHT22;49390;51.380;0.098;2022-10-16T11:52:49;17.90;87.50
63260;DHT22;49390;51.380;0.098;2022-10-16T11:55:39;18.00;88.10
63260;DHT22;49390;51.380;0.098;2022-10-16T12:09:00;18.50;82.80
63260;DHT22;49390;51.380;0.098;2022-10-16T12:16:53;18.40;81.60
63260;DHT22;49390;51.380;0.098;2022-10-16T12:19:24;18.30;81.60
63260;DHT22;49390;51.380;0.098;2022-10-16T12:21:56;18.20;82.70
63260;DHT22;49390;51.380;0.098;2022-10-16T12:24:37;18.10;85.50
63260;DHT22;49390;51.380;0.098;2022-10-16T12:27:18;18.00;87.90
63260;DHT22;49390;51.380;0.098;2022-10-16T12:29:56;17.90;89.30
63260;DHT22;49390;51.380;0.098;2022-10-16T12:32:36;17.80;90.50
63260;DHT22;49390;51.380;0.098;2022-10-16T12:35:20;17.80;92.00
63260;DHT22;49390;51.380;0.098;2022-10-16T12:40:28;17.70;93.80
63260;DHT22;49390;51.380;0.098;2022-10-16T12:42:59;17.60;95.40
63260;DHT22;49390;51.380;0.098;2022-10-16T12:45:31;17.60;96.20
63260;DHT22;49390;51.380;0.098;2022-10-16T12:48:02;17.50;96.60
63260;DHT22;49390;51.380;0.098;2022-10-16T12:50:36;17.40;97.30
63260;DHT22;49390;51.380;0.098;2022-10-16T12:53:18;17.40;98.30
63260;DHT22;49390;51.380;0.098;2022-10-16T12:59:06;17.30;99.60
63260;DHT22;49390;51.380;0.098;2022-10-16T13:10:08;17.20;99.90
63260;DHT22;49390;51.380;0.098;2022-10-16T13:21:46;17.30;99.90
63260;DHT22;49390;51.380;0.098;2022-10-16T13:24:25;17.20;99.90
63260;DHT22;49390;51.380;0.098;2022-10-16T13:29:23;17.10;99.90
63260;DHT22;49390;51.380;0.098;2022-10-16T13:31:51;17.10;99.90
63260;DHT22;49390;51.380;0.098;2022-10-16T13:34:21;17.10;99.90
63260;DHT22;49390;51.380;0.098;2022-10-16T13:36:52;17.10;99.90
63260;DHT22;49390;51.380;0.098;2022-10-16T13:39:38;17.10;99.90
63260;DHT22;49390;51.380;0.098;2022-10-16T13:42:10;17.10;99.90
63260;DHT22;49390;51.380;0.098;2022-10-16T13:44:44;17.10;99.90
63260;DHT22;49390;51.380;0.098;2022-10-16T13:47:18;17.10;99.90
63260;DHT22;49390;51.380;0.098;2022-10-16T13:49:58;17.10;99.90
63260;DHT22;49390;51.380;0.098;2022-10-16T13:52:26;17.10;99.90
63260;DHT22;49390;51.380;0.098;2022-10-16T13:54:57;17.10;99.90
63260;DHT22;49390;51.380;0.098;2022-10-16T13:57:29;17.20;99.90
63260;DHT22;49390;51.380;0.098;2022-10-16T13:59:56;17.20;99.90
63260;DHT22;49390;51.380;0.098;2022-10-16T14:02:31;17.30;99.90
63260;DHT22;49390;51.380;0.098;2022-10-16T14:05:04;17.20;99.90
63260;DHT22;49390;51.380;0.098;2022-10-16T14:07:33;17.30;99.90
63260;DHT22;49390;51.380;0.098;2022-10-16T14:10:18;17.20;99.90
63260;DHT22;49390;51.380;0.098;2022-10-16T14:13:00;17.20;99.90
63260;DHT22;49390;51.380;0.098;2022-10-16T14:15:30;17.10;99.90
63260;DHT22;49390;51.380;0.098;2022-10-16T14:18:03;17.10;99.90
63260;DHT22;49390;51.380;0.098;2022-10-16T14:20:35;17.10;99.90
63260;DHT22;49390;51.380;0.098;2022-10-16T14:23:28;17.10;99.90
63260;DHT22;49390;51.380;0.098;2022-10-16T14:28:38;17.10;99.90
63260;DHT22;49390;51.380;0.098;2022-10-16T14:31:29;17.10;99.90
63260;DHT22;49390;51.380;0.098;2022-10-16T14:33:59;17.10;99.90
63260;DHT22;49390;51.380;0.098;2022-10-16T14:36:28;17.10;99.90
63260;DHT22;49390;51.380;0.098;2022-10-16T14:39:13;17.10;99.90
63260;DHT22;49390;51.380;0.098;2022-10-16T14:41:47;17.00;99.90
63260;DHT22;49390;51.380;0.098;2022-10-16T14:44:17;17.00;99.90
63260;DHT22;49390;51.380;0.098;2022-10-16T14:46:46;17.00;99.90
63260;DHT22;49390;51.380;0.098;2022-10-16T14:49:19;16.90;99.90
63260;DHT22;49390;51.380;0.098;2022-10-16T14:51:48;16.90;99.90
63260;DHT22;49390;51.380;0.098;2022-10-16T14:54:20;16.90;99.90
63260;DHT22;49390;51.380;0.098;2022-10-16T15:01:47;16.90;99.90
63260;DHT22;49390;51.380;0.098;2022-10-16T15:04:17;16.90;99.90
63260;DHT22;49390;51.380;0.098;2022-10-16T15:06:46;16.90;99.90
63260;DHT22;49390;51.380;0.098;2022-10-16T15:09:14;16.80;99.90
63260;DHT22;49390;51.380;0.098;2022-10-16T15:11:45;16.80;99.90
63260;DHT22;49390;51.380;0.098;2022-10-16T15:14:16;16.80;99.90
63260;DHT22;49390;51.380;0.098;2022-10-16T15:16:46;16.80;99.90
63260;DHT22;49390;51.380;0.098;2022-10-16T15:19:15;16.70;99.90
63260;DHT22;49390;51.380;0.098;2022-10-16T15:21:45;16.60;99.90
63260;DHT22;49390;51.380;0.098;2022-10-16T15:24:13;16.60;99.90
63260;DHT22;49390;51.380;0.098;2022-10-16T15:26:47;16.50;99.90
63260;DHT22;49390;51.380;0.098;2022-10-16T15:29:16;16.50;99.90
63260;DHT22;49390;51.380;0.098;2022-10-16T15:31:44;16.50;99.90
63260;DHT22;49390;51.380;0.098;2022-10-16T15:34:18;16.40;99.90
63260;DHT22;49390;51.380;0.098;2022-10-16T15:36:47;16.40;99.90
63260;DHT22;49390;51.380;0.098;2022-10-16T15:39:17;16.40;99.90
63260;DHT22;49390;51.380;0.098;2022-10-16T15:41:47;16.30;99.90
63260;DHT22;49390;51.380;0.098;2022-10-16T15:44:19;16.30;99.90
63260;DHT22;49390;51.380;0.098;2022-10-16T15:46:48;16.30;99.90
63260;DHT22;49390;51.380;0.098;2022-10-16T15:49:16;16.20;99.90
63260;DHT22;49390;51.380;0.098;2022-10-16T15:51:44;16.20;99.90
63260;DHT22;49390;51.380;0.098;2022-10-16T15:54:15;16.20;99.90
63260;DHT22;49390;51.380;0.098;2022-10-16T15:56:43;16.20;99.90
63260;DHT22;49390;51.380;0.098;2022-10-16T15:59:16;16.20;99.90
63260;DHT22;49390;51.380;0.098;2022-10-16T16:01:46;16.20;99.90
63260;DHT22;49390;51.380;0.098;2022-10-16T16:04:14;16.10;99.90
63260;DHT22;49390;51.380;0.098;2022-10-16T16:07:04;16.10;99.90
63260;DHT22;49390;51.380;0.098;2022-10-16T16:09:35;16.10;99.90
63260;DHT22;49390;51.380;0.098;2022-10-16T16:12:05;16.10;99.90
63260;DHT22;49390;51.380;0.098;2022-10-16T16:14:33;16.00;99.90
63260;DHT22;49390;51.380;0.098;2022-10-16T16:17:01;16.00;99.90
63260;DHT22;49390;51.380;0.098;2022-10-16T16:19:30;16.00;99.90
63260;DHT22;49390;51.380;0.098;2022-10-16T16:21:59;16.00;99.90
63260;DHT22;49390;51.380;0.098;2022-10-16T16:24:27;15.90;99.90
63260;DHT22;49390;51.380;0.098;2022-10-16T16:26:55;15.90;99.90
63260;DHT22;49390;51.380;0.098;2022-10-16T16:29:23;15.90;99.90
63260;DHT22;49390;51.380;0.098;2022-10-16T16:31:51;15.90;99.90
63260;DHT22;49390;51.380;0.098;2022-10-16T16:34:26;15.80;99.90
63260;DHT22;49390;51.380;0.098;2022-10-16T16:36:55;15.80;99.90
63260;DHT22;49390;51.380;0.098;2022-10-16T16:39:23;15.70;99.90
63260;DHT22;49390;51.380;0.098;2022-10-16T16:41:52;15.70;99.90
63260;DHT22;49390;51.380;0.098;2022-10-16T16:44:22;15.70;99.90
63260;DHT22;49390;51.380;0.098;2022-10-16T16:46:50;15.70;99.90
63260;DHT22;49390;51.380;0.098;2022-10-16T16:49:19;15.60;99.90
63260;DHT22;49390;51.380;0.098;2022-10-16T16:51:50;15.60;99.90
63260;DHT22;49390;51.380;0.098;2022-10-16T16:54:18;15.60;99.90
63260;DHT22;49390;51.380;0.098;2022-10-16T16:56:46;15.60;99.90
63260;DHT22;49390;51.380;0.098;2022-10-16T16:59:16;15.60;99.90
63260;DHT22;49390;51.380;0.098;2022-10-16T17:01:45;15.60;99.90
63260;DHT22;49390;51.380;0.098;2022-10-16T17:04:14;15.50;99.90
63260;DHT22;49390;51.380;0.098;2022-10-16T17:06:48;15.50;99.90
63260;DHT22;49390;51.380;0.098;2022-10-16T17:09:16;15.50;99.90
63260;DHT22;49390;51.380;0.098;2022-10-16T17:11:44;15.50;99.90
63260;DHT22;49390;51.380;0.098;2022-10-16T17:14:15;15.40;99.90
63260;DHT22;49390;51.380;0.098;2022-10-16T17:16:43;15.40;99.90
63260;DHT22;49390;51.380;0.098;2022-10-16T17:19:14;15.40;99.90
63260;DHT22;49390;51.380;0.098;2022-10-16T17:21:43;15.40;99.90
63260;DHT22;49390;51.380;0.098;2022-10-16T17:24:13;15.40;99.90
63260;DHT22;49390;51.380;0.098;2022-10-16T17:26:42;15.40;99.90
63260;DHT22;49390;51.380;0.098;2022-10-16T17:29:16;15.40;99.90
63260;DHT22;49390;51.380;0.098;2022-10-16T17:31:47;15.40;99.90
63260;DHT22;49390;51.380;0.098;2022-10-16T17:34:16;15.30;99.90
63260;DHT22;49390;51.380;0.098;2022-10-16T17:36:44;15.30;99.90
63260;DHT22;49390;51.380;0.098;2022-10-16T17:39:15;15.30;99.90
63260;DHT22;49390;51.380;0.098;2022-10-16T17:41:46;15.30;99.90
63260;DHT22;49390;51.380;0.098;2022-10-16T17:44:15;15.20;99.90
63260;DHT22;49390;51.380;0.098;2022-10-16T17:46:49;15.20;99.90
63260;DHT22;49390;51.380;0.098;2022-10-16T17:49:18;15.20;99.90
63260;DHT22;49390;51.380;0.098;2022-10-16T17:51:50;15.20;99.90
63260;DHT22;49390;51.380;0.098;2022-10-16T17:54:19;15.20;99.90
63260;DHT22;49390;51.380;0.098;2022-10-16T17:56:47;15.10;99.90
63260;DHT22;49390;51.380;0.098;2022-10-16T17:59:18;15.10;99.90
63260;DHT22;49390;51.380;0.098;2022-10-16T18:01:50;15.10;99.90
63260;DHT22;49390;51.380;0.098;2022-10-16T18:04:18;15.10;99.90
63260;DHT22;49390;51.380;0.098;2022-10-16T18:06:48;15.10;99.90
63260;DHT22;49390;51.380;0.098;2022-10-16T18:09:18;15.10;99.90
63260;DHT22;49390;51.380;0.098;2022-10-16T18:11:47;15.10;99.90
63260;DHT22;49390;51.380;0.098;2022-10-16T18:14:28;15.10;99.90
63260;DHT22;49390;51.380;0.098;2022-10-16T18:16:56;15.10;99.90